Terminal Aerodrome Forecast
Issued by NWS Houston/Galveston, TX

Home | Current Version | Previous Version | Text Only | Print | Product List | Glossary On
Versions: 1 2 3 4 5 6 7 8 9 10 11 12 13 14 15 16 17 18 19 20 21 22 23 24 25 26 27 28 29 30 31 32
000
FTUS44 KHGX 011259 AAA
TAFCLL
TAF AMD
KCLL 011259Z 0113/0212 VRB03KT P6SM VCTS SCT025CB BKN250
      TEMPO 0113/0114 SHRA BKN025
     FM011500 15009KT P6SM SCT040 BKN250
     FM011900 15012KT P6SM VCTS BKN040CB BKN250
     FM020000 14007KT P6SM SCT120
     FM020600 16003KT P6SM SKC=

USA.gov is the U.S. government's official web portal to all federal, state and local government web resources and services.